Time;durP1;ratioP1;P1;durP2;ratioP2;P2;SDS_P1;SDS_P2;PMS_P1;PMS_P2;Temp;Humidity;BMP_temperature;BMP_pressure;BME280_temperature;BME280_humidity;BME280_pressure;Samples;Min_cycle;Max_cycle;Signal;HPM_P1;HPM_P2
2021/09/02 00:02:07;;;;;;;1.20;1.00;;;22.90;57.50;;;;;;6199335;23;20179;-86
2021/09/02 00:04:33;;;;;;;1.60;1.20;;;22.90;57.50;;;;;;6173236;23;20152;-85
2021/09/02 00:10:04;;;;;;;1.63;1.43;;;22.80;57.40;;;;;;6080394;23;20394;-85
2021/09/02 00:12:30;;;;;;;1.30;1.10;;;22.80;57.50;;;;;;6079073;23;20415;-85
2021/09/02 00:14:56;;;;;;;1.80;1.40;;;22.80;57.50;;;;;;6055972;23;20407;-85
2021/09/02 00:17:21;;;;;;;1.20;1.10;;;22.80;57.50;;;;;;6054942;23;20166;-85
2021/09/02 00:19:47;;;;;;;1.40;1.20;;;22.80;57.50;;;;;;6055554;23;20177;-85
2021/09/02 00:22:13;;;;;;;1.30;1.20;;;22.80;57.50;;;;;;6079872;23;20241;-85
2021/09/02 00:24:41;;;;;;;1.63;1.27;;;22.80;57.50;;;;;;6079932;23;20213;-85
2021/09/02 00:27:07;;;;;;;1.60;1.30;;;22.80;57.50;;;;;;6079441;23;20161;-85
2021/09/02 00:29:33;;;;;;;1.30;1.10;;;22.80;57.50;;;;;;6079002;23;20394;-85
2021/09/02 00:31:59;;;;;;;1.60;1.40;;;22.80;57.50;;;;;;6079743;23;20150;-85
2021/09/02 00:34:24;;;;;;;1.37;1.27;;;22.80;57.50;;;;;;6080334;23;20498;-85
2021/09/02 00:36:53;;;;;;;1.20;1.10;;;22.80;57.50;;;;;;6079815;23;20202;-85
2021/09/02 00:39:28;;;;;;;1.53;1.40;;;22.80;57.50;;;;;;6089009;23;20166;-85
2021/09/02 00:41:54;;;;;;;1.43;1.20;;;22.80;58.00;;;;;;6202670;23;20893;-85
2021/09/02 00:44:42;;;;;;;1.63;1.23;;;22.80;57.50;;;;;;6198771;23;20444;-85
2021/09/02 00:47:15;;;;;;;1.40;1.30;;;22.80;57.50;;;;;;6175912;23;20216;-85
2021/09/02 00:49:45;;;;;;;1.70;1.37;;;22.80;57.60;;;;;;6175741;23;20719;-84
2021/09/02 00:52:20;;;;;;;1.20;1.10;;;22.80;57.50;;;;;;6202357;23;20379;-85
2021/09/02 00:54:53;;;;;;;1.70;1.57;;;22.80;57.50;;;;;;6230973;23;20462;-84
2021/09/02 00:57:22;;;;;;;1.40;1.30;;;22.80;57.50;;;;;;6229492;23;20402;-84
2021/09/02 00:59:49;;;;;;;2.07;1.77;;;22.80;57.50;;;;;;6227088;23;20394;-84
2021/09/02 01:02:15;;;;;;;1.60;1.40;;;22.80;57.50;;;;;;6227350;23;20456;-84
2021/09/02 01:04:41;;;;;;;1.57;1.17;;;22.80;57.50;;;;;;6227769;23;20710;-84
2021/09/02 01:07:07;;;;;;;1.30;1.17;;;22.80;57.60;;;;;;6252666;23;20381;-84
2021/09/02 01:09:34;;;;;;;1.20;1.07;;;22.80;57.50;;;;;;6228810;23;20379;-84
2021/09/02 01:12:25;;;;;;;1.40;1.30;;;22.80;57.50;;;;;;6227639;23;20390;-85
2021/09/02 01:14:51;;;;;;;1.10;1.00;;;22.80;57.50;;;;;;6228947;23;20785;-85
2021/09/02 01:17:24;;;;;;;1.57;1.37;;;22.80;57.60;;;;;;6228956;23;20409;-84
2021/09/02 01:19:56;;;;;;;1.40;1.30;;;22.80;57.60;;;;;;6228183;23;20390;-85
2021/09/02 01:22:29;;;;;;;1.77;1.53;;;22.80;57.60;;;;;;6227303;23;20422;-85
2021/09/02 01:25:04;;;;;;;1.60;1.50;;;22.80;57.60;;;;;;6228642;23;20826;-85
2021/09/02 01:27:32;;;;;;;1.30;1.20;;;22.80;57.60;;;;;;6229400;23;20358;-85
2021/09/02 01:30:00;;;;;;;1.70;1.47;;;22.80;57.60;;;;;;6228679;23;20370;-86
2021/09/02 01:32:28;;;;;;;1.47;1.33;;;22.80;57.60;;;;;;6227301;23;20386;-85
2021/09/02 01:34:56;;;;;;;1.47;1.13;;;22.80;57.60;;;;;;6229208;23;20457;-85
2021/09/02 01:37:59;;;;;;;1.60;1.27;;;22.80;57.60;;;;;;6229660;23;20390;-85
2021/09/02 01:40:26;;;;;;;1.30;1.00;;;22.80;57.50;;;;;;6109893;23;20436;-85
2021/09/02 01:42:52;;;;;;;1.40;1.17;;;22.80;57.60;;;;;;6205989;23;20397;-84
2021/09/02 01:45:19;;;;;;;1.80;1.43;;;22.80;57.70;;;;;;6230712;23;20382;-84
2021/09/02 01:47:46;;;;;;;1.30;1.20;;;22.80;57.60;;;;;;6229954;23;20382;-84
2021/09/02 01:50:16;;;;;;;1.37;1.23;;;22.80;57.60;;;;;;6230349;23;20371;-84
2021/09/02 01:52:43;;;;;;;1.23;1.13;;;22.80;57.60;;;;;;6229338;23;20389;-84
2021/09/02 01:55:12;;;;;;;1.23;1.03;;;22.80;57.60;;;;;;6174116;23;20380;-84
2021/09/02 01:57:39;;;;;;;1.60;1.40;;;22.80;57.60;;;;;;6198902;23;20379;-85
2021/09/02 02:00:07;;;;;;;1.50;1.23;;;22.80;57.60;;;;;;6172260;23;20458;-84
2021/09/02 02:02:33;;;;;;;1.63;1.50;;;22.80;57.60;;;;;;6198184;23;20415;-84
2021/09/02 02:04:59;;;;;;;1.70;1.33;;;22.80;57.60;;;;;;6199226;23;20417;-85
2021/09/02 02:07:25;;;;;;;1.33;1.23;;;22.80;57.60;;;;;;6201091;23;20175;-85
2021/09/02 02:09:50;;;;;;;1.50;1.40;;;22.80;57.60;;;;;;6200579;23;20707;-84
2021/09/02 02:12:16;;;;;;;1.90;1.50;;;22.80;57.60;;;;;;6173487;23;20486;-84
2021/09/02 02:14:42;;;;;;;1.30;1.20;;;22.80;57.60;;;;;;6200129;23;20152;-85
2021/09/02 02:17:08;;;;;;;1.40;1.20;;;22.80;57.60;;;;;;6174846;23;20156;-85
2021/09/02 02:19:33;;;;;;;1.40;1.10;;;22.80;57.60;;;;;;6200494;23;20491;-84
2021/09/02 02:21:59;;;;;;;1.57;1.30;;;22.80;57.60;;;;;;6199926;23;20186;-85
2021/09/02 02:24:25;;;;;;;1.77;1.40;;;22.80;57.70;;;;;;6172997;23;20210;-85
2021/09/02 02:26:51;;;;;;;1.80;1.30;;;22.80;57.60;;;;;;6173453;23;20410;-85
2021/09/02 02:32:39;;;;;;;1.50;1.40;;;22.80;57.60;;;;;;6200535;23;20676;-85
2021/09/02 02:35:05;;;;;;;1.60;1.30;;;22.70;57.60;;;;;;6200516;23;20401;-84
2021/09/02 02:37:31;;;;;;;1.50;1.30;;;22.80;57.70;;;;;;6199894;23;20383;-84
2021/09/02 02:39:56;;;;;;;1.50;1.40;;;22.80;57.70;;;;;;6200325;23;20764;-85
2021/09/02 02:42:22;;;;;;;1.33;1.20;;;22.80;57.70;;;;;;6199979;23;20483;-84
2021/09/02 02:44:48;;;;;;;1.73;1.53;;;22.80;57.60;;;;;;6200267;23;20175;-85
2021/09/02 02:47:14;;;;;;;1.33;1.17;;;22.70;57.60;;;;;;6173354;23;20447;-85
2021/09/02 02:49:40;;;;;;;1.40;1.20;;;22.80;57.70;;;;;;6198289;23;20159;-84
2021/09/02 02:52:06;;;;;;;1.00;0.90;;;22.80;57.60;;;;;;6200083;23;20225;-84
2021/09/02 02:54:32;;;;;;;1.37;1.27;;;22.80;57.70;;;;;;6200383;23;20419;-84
2021/09/02 02:56:58;;;;;;;1.40;1.07;;;22.80;57.70;;;;;;6199830;23;20387;-84
2021/09/02 02:59:24;;;;;;;1.30;1.20;;;22.80;57.60;;;;;;6173476;23;20163;-84
2021/09/02 03:01:49;;;;;;;1.63;1.27;;;22.80;57.60;;;;;;6200637;23;20172;-87
2021/09/02 03:04:15;;;;;;;1.60;1.40;;;22.80;57.60;;;;;;6173292;23;20158;-87
2021/09/02 03:06:41;;;;;;;1.63;1.30;;;22.80;57.60;;;;;;6173759;23;20603;-84
2021/09/02 03:09:10;;;;;;;1.50;1.23;;;22.80;57.60;;;;;;6174036;23;20151;-84
2021/09/02 03:11:35;;;;;;;1.40;1.30;;;22.80;57.60;;;;;;6199491;23;20222;-85
2021/09/02 03:14:01;;;;;;;1.37;1.27;;;22.80;57.60;;;;;;6200488;23;20375;-84
2021/09/02 03:16:27;;;;;;;1.30;1.10;;;22.80;57.60;;;;;;6173050;23;20155;-85
2021/09/02 03:18:53;;;;;;;1.40;1.20;;;22.80;57.60;;;;;;6199658;23;20402;-84
2021/09/02 03:21:19;;;;;;;1.80;1.50;;;22.80;57.60;;;;;;6173490;23;20427;-84
2021/09/02 03:23:45;;;;;;;1.60;1.50;;;22.80;57.60;;;;;;6172305;23;20152;-85
2021/09/02 03:26:11;;;;;;;1.77;1.50;;;22.80;57.60;;;;;;6173558;23;20229;-84
2021/09/02 03:28:39;;;;;;;1.70;1.60;;;22.80;57.60;;;;;;6199945;23;20383;-85
2021/09/02 03:31:05;;;;;;;1.23;1.10;;;22.80;57.60;;;;;;6199871;23;20148;-84
2021/09/02 03:33:30;;;;;;;1.50;1.40;;;22.80;57.60;;;;;;6200402;23;20383;-85
2021/09/02 03:35:56;;;;;;;1.73;1.40;;;22.80;57.70;;;;;;6173841;23;20191;-84
2021/09/02 03:38:22;;;;;;;1.60;1.30;;;22.80;57.60;;;;;;6172755;23;20156;-84
2021/09/02 03:40:48;;;;;;;1.20;1.10;;;22.80;57.60;;;;;;6173370;23;20192;-84
2021/09/02 03:43:14;;;;;;;1.50;1.40;;;22.80;57.60;;;;;;6173623;23;20155;-84
2021/09/02 03:45:39;;;;;;;1.37;1.27;;;22.80;57.60;;;;;;6173082;23;20152;-85
2021/09/02 03:48:05;;;;;;;1.50;1.20;;;22.80;57.60;;;;;;6172264;23;20230;-85
2021/09/02 03:50:31;;;;;;;1.60;1.27;;;22.70;57.60;;;;;;6173237;23;20191;-85
2021/09/02 03:52:57;;;;;;;1.40;1.30;;;22.80;57.60;;;;;;6180865;23;20170;-85
2021/09/02 03:58:44;;;;;;;1.40;1.23;;;22.80;57.60;;;;;;6229929;23;20520;-84
2021/09/02 04:01:10;;;;;;;1.33;1.23;;;22.70;57.60;;;;;;6229042;23;20414;-85
2021/09/02 04:03:36;;;;;;;1.37;1.13;;;22.70;57.60;;;;;;6253068;23;20151;-85
2021/09/02 04:06:02;;;;;;;1.70;1.43;;;22.70;57.60;;;;;;6229357;23;20143;-84
2021/09/02 04:08:28;;;;;;;1.40;1.27;;;22.70;57.70;;;;;;6228164;23;20158;-84
2021/09/02 04:10:53;;;;;;;1.50;1.30;;;22.70;57.70;;;;;;6229362;23;20147;-85
2021/09/02 04:13:19;;;;;;;1.20;1.10;;;22.70;57.60;;;;;;6254007;23;20158;-84
2021/09/02 04:15:48;;;;;;;1.37;1.13;;;22.80;57.70;;;;;;6228917;23;20155;-84
2021/09/02 04:18:14;;;;;;;1.70;1.60;;;22.70;57.70;;;;;;6229547;23;20147;-84
2021/09/02 04:20:39;;;;;;;1.63;1.40;;;22.70;57.60;;;;;;6253264;23;20893;-84
2021/09/02 04:26:27;;;;;;;1.77;1.50;;;22.70;57.60;;;;;;6228800;23;20153;-87
2021/09/02 04:28:52;;;;;;;1.67;1.40;;;22.70;57.60;;;;;;6228533;23;20398;-86
2021/09/02 04:31:18;;;;;;;1.23;1.13;;;22.70;57.60;;;;;;6229210;23;20154;-86
2021/09/02 04:37:09;;;;;;;1.40;1.20;;;22.80;57.60;;;;;;6229152;23;20184;-86
2021/09/02 04:39:35;;;;;;;2.17;1.40;;;22.70;57.60;;;;;;6227122;23;20512;-87
2021/09/02 04:45:22;;;;;;;1.67;1.30;;;22.80;57.60;;;;;;6229309;23;20351;-86
2021/09/02 04:47:50;;;;;;;1.50;1.37;;;22.70;57.50;;;;;;6228431;23;20393;-87
2021/09/02 04:50:16;;;;;;;1.57;1.43;;;22.80;57.50;;;;;;6228953;23;20147;-87
2021/09/02 04:52:42;;;;;;;1.37;1.27;;;22.80;57.50;;;;;;6223175;23;20856;-86
2021/09/02 04:55:10;;;;;;;1.70;1.50;;;22.80;57.50;;;;;;6199062;23;20442;-87
2021/09/02 04:57:36;;;;;;;2.17;1.40;;;22.80;57.40;;;;;;6173203;23;20866;-87
2021/09/02 05:00:05;;;;;;;1.50;1.40;;;22.80;57.30;;;;;;6199023;23;20449;-86
2021/09/02 05:02:31;;;;;;;1.40;1.30;;;22.90;57.40;;;;;;6172256;23;20422;-87
2021/09/02 05:04:58;;;;;;;2.07;1.87;;;22.90;57.40;;;;;;6198885;23;20378;-86
2021/09/02 05:07:24;;;;;;;1.77;1.57;;;22.90;57.30;;;;;;6172324;23;20417;-86
2021/09/02 05:09:49;;;;;;;1.30;1.20;;;22.90;57.30;;;;;;6173094;23;20379;-87
2021/09/02 05:12:17;;;;;;;1.40;1.20;;;22.90;57.30;;;;;;6199122;23;20599;-87
2021/09/02 05:14:44;;;;;;;1.40;1.30;;;22.90;57.30;;;;;;6172077;23;20160;-87
2021/09/02 05:17:10;;;;;;;1.30;1.10;;;22.90;57.20;;;;;;6199305;23;20486;-86
2021/09/02 05:19:36;;;;;;;1.33;1.20;;;22.90;57.20;;;;;;6199089;23;20386;-87
2021/09/02 05:22:02;;;;;;;1.40;1.30;;;22.90;57.20;;;;;;6198897;23;20410;-87
2021/09/02 05:24:28;;;;;;;1.43;1.33;;;22.90;57.20;;;;;;6172580;23;20159;-86
2021/09/02 05:26:57;;;;;;;2.10;1.37;;;22.90;57.20;;;;;;6173148;23;20474;-86
2021/09/02 05:29:23;;;;;;;1.30;1.20;;;23.00;57.20;;;;;;6198709;23;20534;-87
2021/09/02 05:31:48;;;;;;;1.90;1.27;;;22.90;57.10;;;;;;6172495;23;20469;-87
2021/09/02 05:37:36;;;;;;;1.33;1.20;;;23.00;57.10;;;;;;6198534;23;20175;-87
2021/09/02 05:40:04;;;;;;;1.53;1.13;;;23.00;57.20;;;;;;6173990;23;20383;-87
2021/09/02 05:42:30;;;;;;;2.10;1.73;;;23.00;57.20;;;;;;6200476;23;20426;-87
2021/09/02 05:44:56;;;;;;;1.37;1.13;;;23.00;57.20;;;;;;6200826;23;20375;-87
2021/09/02 05:47:25;;;;;;;1.60;1.30;;;23.00;57.20;;;;;;6174625;23;20207;-87
2021/09/02 05:49:51;;;;;;;1.87;1.27;;;23.00;57.20;;;;;;6201254;23;20147;-86
2021/09/02 05:52:20;;;;;;;1.50;1.40;;;23.00;57.20;;;;;;6200436;23;20457;-87
2021/09/02 05:54:53;;;;;;;1.30;1.20;;;23.00;57.20;;;;;;6228067;23;20178;-86
2021/09/02 05:57:23;;;;;;;1.30;1.20;;;23.00;57.20;;;;;;6228956;23;20374;-86
2021/09/02 05:59:49;;;;;;;1.50;1.40;;;23.00;57.20;;;;;;6228984;23;20386;-86
2021/09/02 06:02:15;;;;;;;1.50;1.40;;;23.00;57.20;;;;;;6255042;23;20418;-87
2021/09/02 06:04:40;;;;;;;1.37;1.27;;;23.00;57.20;;;;;;6231567;23;20436;-87
2021/09/02 06:07:48;;;;;;;1.20;1.10;;;23.00;57.20;;;;;;6229427;23;20436;-87
2021/09/02 06:10:13;;;;;;;1.93;1.37;;;23.00;57.20;;;;;;6109649;23;20146;-87
2021/09/02 06:12:39;;;;;;;1.73;1.33;;;23.00;57.30;;;;;;6109443;23;20413;-86
2021/09/02 06:15:10;;;;;;;1.37;1.27;;;23.00;57.30;;;;;;6109575;23;20233;-86
2021/09/02 06:17:43;;;;;;;1.20;1.00;;;23.00;57.30;;;;;;6086080;23;20154;-86
2021/09/02 06:20:12;;;;;;;1.40;1.20;;;23.00;57.30;;;;;;6109223;23;20440;-87
2021/09/02 06:22:38;;;;;;;1.20;1.10;;;23.00;57.30;;;;;;6221595;23;20515;-87
2021/09/02 06:25:07;;;;;;;1.10;1.00;;;23.00;57.30;;;;;;6230805;23;20370;-87
2021/09/02 06:27:38;;;;;;;1.20;1.00;;;23.00;57.30;;;;;;6229044;23;20147;-87
2021/09/02 06:30:10;;;;;;;1.47;1.37;;;23.00;57.30;;;;;;6229158;23;20370;-84
2021/09/02 06:32:36;;;;;;;1.90;1.80;;;23.10;57.40;;;;;;6229417;23;20392;-86
2021/09/02 06:35:02;;;;;;;1.40;1.30;;;23.00;57.30;;;;;;6229027;23;20390;-86
2021/09/02 06:37:28;;;;;;;1.57;1.30;;;23.00;57.30;;;;;;6230154;23;20370;-87
2021/09/02 06:39:54;;;;;;;1.60;1.33;;;23.10;57.40;;;;;;6229080;23;20386;-86
2021/09/02 06:42:22;;;;;;;3.10;2.07;;;23.10;57.40;;;;;;6254467;23;20179;-86
2021/09/02 06:45:36;;;;;;;1.80;1.20;;;23.10;57.40;;;;;;6229139;23;20470;-86
2021/09/02 06:48:27;;;;;;;1.43;1.07;;;23.10;57.30;;;;;;6085227;23;20393;-86
2021/09/02 06:51:53;;;;;;;;;;;;;;;;;;;;;
2021/09/02 06:54:29;;;;;;;1.50;1.40;;;23.10;57.40;;;;;;6109281;23;20425;-85
2021/09/02 07:03:45;;;;;;;1.20;1.10;;;23.10;57.50;;;;;;6023186;23;20396;-86
2021/09/02 07:06:11;;;;;;;1.30;1.20;;;23.00;57.40;;;;;;6022780;23;20369;-86
2021/09/02 07:08:37;;;;;;;1.47;1.20;;;23.10;57.50;;;;;;5999878;23;20372;-86
2021/09/02 07:11:04;;;;;;;1.23;1.10;;;23.10;57.50;;;;;;5999606;23;20389;-86
2021/09/02 07:13:30;;;;;;;1.57;1.17;;;23.10;57.40;;;;;;5999262;23;20445;-86
2021/09/02 07:15:56;;;;;;;1.57;1.20;;;23.10;57.40;;;;;;5999732;23;20403;-86
2021/09/02 07:18:22;;;;;;;1.10;1.00;;;23.20;57.90;;;;;;5999043;23;20377;-86
2021/09/02 07:20:47;;;;;;;1.57;1.30;;;23.20;57.40;;;;;;5999663;23;20506;-86
2021/09/02 07:23:13;;;;;;;1.60;1.30;;;23.10;57.30;;;;;;6023269;23;20155;-86
2021/09/02 07:25:39;;;;;;;1.50;1.10;;;23.20;57.40;;;;;;6165675;23;20148;-86
2021/09/02 07:28:09;;;;;;;1.10;1.00;;;23.20;57.40;;;;;;6168762;23;20148;-86
2021/09/02 07:30:38;;;;;;;1.40;1.30;;;23.20;57.40;;;;;;6173863;23;20155;-87
2021/09/02 07:33:11;;;;;;;1.20;1.10;;;23.20;57.40;;;;;;6254386;23;20446;-87
2021/09/02 07:36:51;;;;;;;;;;;;;;;;;;;;;
2021/09/02 07:43:40;;;;;;;;;;;;;;;;;;;;;
2021/09/02 07:46:45;;;;;;;1.33;1.00;;;23.20;57.50;;;;;;6021773;23;20396;-87
2021/09/02 07:49:11;;;;;;;1.57;1.13;;;23.10;57.50;;;;;;6022221;23;20444;-87
2021/09/02 07:55:15;;;;;;;1.20;1.10;;;23.10;57.50;;;;;;6022655;23;20228;-87
2021/09/02 07:57:46;;;;;;;1.30;1.07;;;23.20;58.10;;;;;;6022084;23;20879;-87
2021/09/02 08:00:13;;;;;;;1.43;1.30;;;23.10;57.60;;;;;;6022567;23;20385;-87
2021/09/02 08:02:38;;;;;;;1.27;1.10;;;23.10;57.50;;;;;;6021812;23;20560;-87
2021/09/02 08:05:05;;;;;;;1.40;1.17;;;23.20;57.50;;;;;;6023189;23;20377;-87
2021/09/02 08:07:52;;;;;;;1.77;1.23;;;23.20;57.50;;;;;;6022448;23;20542;-87
2021/09/02 08:10:21;;;;;;;1.20;1.10;;;23.20;57.50;;;;;;6014261;23;20383;-87
2021/09/02 08:12:49;;;;;;;1.90;1.50;;;23.20;57.50;;;;;;6074308;23;20481;-87
2021/09/02 08:15:17;;;;;;;1.20;1.10;;;23.20;57.50;;;;;;6102932;23;20479;-87
2021/09/02 08:17:48;;;;;;;1.30;1.03;;;23.20;57.50;;;;;;6206976;23;20417;-88
2021/09/02 08:20:18;;;;;;;1.13;0.90;;;23.20;57.50;;;;;;6228060;23;20393;-87
2021/09/02 08:22:46;;;;;;;1.23;1.13;;;23.20;57.40;;;;;;6228696;23;20414;-87
2021/09/02 08:25:15;;;;;;;1.50;1.10;;;23.20;57.40;;;;;;6227267;23;20381;-87
2021/09/02 08:27:45;;;;;;;1.13;1.00;;;23.20;57.40;;;;;;6227143;23;20409;-87
2021/09/02 08:30:13;;;;;;;1.00;0.90;;;23.30;57.50;;;;;;6253020;23;20385;-86
2021/09/02 08:32:42;;;;;;;1.13;1.03;;;23.20;57.40;;;;;;6228205;23;20382;-86
2021/09/02 08:35:11;;;;;;;1.37;1.23;;;23.20;57.30;;;;;;6230272;23;20397;-86
2021/09/02 08:37:53;;;;;;;1.33;1.13;;;23.30;57.40;;;;;;6252603;23;20409;-85
2021/09/02 08:40:24;;;;;;;1.50;1.20;;;23.30;57.40;;;;;;6221382;23;20385;-86
2021/09/02 08:42:50;;;;;;;1.40;1.20;;;23.20;57.30;;;;;;6229263;23;20425;-86
2021/09/02 08:45:17;;;;;;;1.37;1.20;;;23.20;57.30;;;;;;6228964;23;20864;-87
2021/09/02 08:51:05;;;;;;;1.30;1.00;;;23.30;57.40;;;;;;6230414;23;20374;-86
2021/09/02 08:53:33;;;;;;;1.33;1.23;;;23.30;57.40;;;;;;6228624;23;20939;-86
2021/09/02 08:56:08;;;;;;;1.30;1.20;;;23.20;57.40;;;;;;6254072;23;20465;-86
2021/09/02 08:58:36;;;;;;;1.77;1.40;;;23.30;57.40;;;;;;6253857;23;20377;-87
2021/09/02 09:01:10;;;;;;;1.57;1.33;;;23.20;57.40;;;;;;6228584;23;20468;-87
2021/09/02 09:03:38;;;;;;;1.70;1.40;;;23.30;57.40;;;;;;6229257;23;20354;-87
2021/09/02 09:06:11;;;;;;;1.83;1.33;;;23.30;57.50;;;;;;6228669;23;20390;-87
2021/09/02 09:08:48;;;;;;;1.40;1.20;;;23.30;57.40;;;;;;6227089;23;20371;-87
2021/09/02 09:11:30;;;;;;;1.10;1.00;;;23.30;57.40;;;;;;6253286;23;20366;-87
2021/09/02 09:14:30;;;;;;;1.30;1.20;;;23.30;57.40;;;;;;6229100;23;20684;-87
2021/09/02 09:17:03;;;;;;;1.23;1.10;;;23.30;57.40;;;;;;6164903;23;20386;-87
2021/09/02 09:20:06;;;;;;;1.33;1.20;;;23.20;57.40;;;;;;6228133;23;20400;-87
2021/09/02 09:22:36;;;;;;;1.23;1.10;;;23.30;57.50;;;;;;6228534;23;20473;-87
2021/09/02 09:25:11;;;;;;;1.33;1.10;;;23.20;57.50;;;;;;6254152;23;20429;-87
2021/09/02 09:27:55;;;;;;;1.40;1.00;;;23.30;57.50;;;;;;6228988;23;20362;-87
2021/09/02 09:30:38;;;;;;;1.13;1.03;;;23.20;57.50;;;;;;6227772;23;20370;-87
2021/09/02 09:33:11;;;;;;;2.27;1.20;;;23.30;57.50;;;;;;6228048;23;20380;-86
2021/09/02 09:35:39;;;;;;;1.20;0.90;;;23.30;57.50;;;;;;6228931;23;20863;-87
2021/09/02 09:38:21;;;;;;;1.23;1.10;;;23.20;58.00;;;;;;6226847;23;20410;-87
2021/09/02 09:41:05;;;;;;;1.27;1.10;;;23.30;57.50;;;;;;6228198;23;20386;-86
2021/09/02 09:43:34;;;;;;;1.63;1.20;;;23.30;57.50;;;;;;6228273;23;20761;-87
2021/09/02 09:49:03;;;;;;;1.20;1.00;;;23.30;57.50;;;;;;6229266;23;20370;-86
2021/09/02 09:51:29;;;;;;;1.13;1.00;;;23.20;57.50;;;;;;6252078;23;20414;-86
2021/09/02 09:53:58;;;;;;;1.30;1.20;;;23.20;57.50;;;;;;6228006;23;20382;-86
2021/09/02 09:56:25;;;;;;;1.47;1.30;;;23.20;57.50;;;;;;6227666;23;20170;-87
2021/09/02 09:59:13;;;;;;;1.53;1.20;;;23.20;57.50;;;;;;6228812;23;20393;-86
2021/09/02 10:01:41;;;;;;;1.20;1.10;;;23.30;57.50;;;;;;6226025;23;20418;-86
2021/09/02 10:04:11;;;;;;;1.40;1.10;;;23.20;57.50;;;;;;6228189;23;20362;-86
2021/09/02 10:06:37;;;;;;;1.13;1.03;;;23.30;57.50;;;;;;6227315;23;20378;-87
2021/09/02 10:09:19;;;;;;;1.20;1.10;;;23.30;57.50;;;;;;6202449;23;20382;-87
2021/09/02 10:11:55;;;;;;;1.30;1.20;;;23.30;57.50;;;;;;6228697;23;20374;-87
2021/09/02 10:24:42;;;;;;;1.23;0.93;;;23.20;57.50;;;;;;6021760;23;20453;-86
2021/09/02 10:27:32;;;;;;;1.00;0.90;;;23.20;57.60;;;;;;6023855;23;20384;-86
2021/09/02 10:36:47;;;;;;;1.20;1.03;;;23.20;57.50;;;;;;5968002;23;20704;-86
2021/09/02 10:39:49;;;;;;;1.10;1.00;;;23.20;57.60;;;;;;5945068;24;20651;-89
2021/09/02 10:45:41;;;;;;;1.53;0.97;;;23.20;57.50;;;;;;5966803;23;20355;-87
2021/09/02 10:48:15;;;;;;;1.20;1.03;;;23.20;58.20;;;;;;5943575;24;20394;-87
2021/09/02 10:51:34;;;;;;;1.07;0.93;;;23.20;57.60;;;;;;5943118;24;20457;-87
2021/09/02 10:54:07;;;;;;;1.20;1.03;;;23.20;57.50;;;;;;5948338;23;20873;-87
2021/09/02 10:56:56;;;;;;;1.00;0.90;;;23.20;57.50;;;;;;6080136;23;20394;-87
2021/09/02 10:59:37;;;;;;;1.20;1.10;;;23.20;57.50;;;;;;6079837;23;20881;-86
2021/09/02 11:02:15;;;;;;;1.10;1.00;;;23.20;57.50;;;;;;6080345;23;20415;-87
2021/09/02 11:04:43;;;;;;;1.50;1.30;;;23.20;57.50;;;;;;6079832;23;20390;-87
2021/09/02 11:07:44;;;;;;;;;;;;;;;;;;;;;
2021/09/02 11:10:19;;;;;;;1.37;1.00;;;23.20;57.50;;;;;;6172548;23;20416;-87
2021/09/02 11:12:48;;;;;;;1.20;1.00;;;23.20;57.50;;;;;;6228485;23;20381;-87
2021/09/02 11:15:26;;;;;;;1.53;1.13;;;23.20;57.50;;;;;;6231034;23;20470;-87
2021/09/02 11:17:56;;;;;;;1.40;1.00;;;23.20;57.50;;;;;;6228721;23;20382;-87
2021/09/02 11:20:28;;;;;;;1.20;1.10;;;23.20;57.50;;;;;;6230615;23;20378;-86
2021/09/02 11:23:25;;;;;;;1.40;1.00;;;23.20;57.50;;;;;;6253982;23;20445;-86
2021/09/02 11:25:53;;;;;;;1.10;1.00;;;23.20;57.50;;;;;;6230842;23;20357;-86
2021/09/02 11:28:24;;;;;;;1.30;1.20;;;23.20;57.50;;;;;;6230384;23;20372;-86
2021/09/02 11:30:54;;;;;;;1.20;1.07;;;23.20;57.50;;;;;;6253942;23;20382;-86
2021/09/02 11:33:20;;;;;;;1.37;1.03;;;23.20;57.50;;;;;;6254760;23;20405;-85
2021/09/02 11:36:08;;;;;;;1.10;1.00;;;23.20;57.40;;;;;;6230455;23;20374;-85
2021/09/02 11:38:37;;;;;;;1.30;1.00;;;23.30;57.50;;;;;;6229219;23;20374;-85
2021/09/02 11:41:18;;;;;;;1.27;1.10;;;23.20;57.50;;;;;;6229030;23;20959;-85
2021/09/02 11:43:51;;;;;;;1.37;1.20;;;23.20;57.40;;;;;;6228853;23;20710;-85
2021/09/02 11:46:23;;;;;;;1.33;0.90;;;23.20;57.50;;;;;;6228385;23;20383;-85
2021/09/02 11:48:57;;;;;;;1.30;1.20;;;23.20;57.40;;;;;;6254230;23;20378;-85
2021/09/02 11:51:28;;;;;;;1.30;1.10;;;23.20;57.50;;;;;;6228003;23;20382;-84
2021/09/02 11:54:12;;;;;;;1.30;1.10;;;23.20;57.50;;;;;;6227601;23;20429;-85
2021/09/02 11:56:50;;;;;;;1.40;1.10;;;23.20;57.40;;;;;;6214153;23;20403;-84
2021/09/02 11:59:20;;;;;;;1.27;1.17;;;23.20;57.50;;;;;;6199219;23;20418;-85
2021/09/02 12:01:50;;;;;;;1.17;1.00;;;23.20;57.50;;;;;;6172316;23;20423;-85
2021/09/02 12:04:24;;;;;;;1.40;1.00;;;23.20;57.50;;;;;;6173210;23;20371;-85
2021/09/02 12:06:53;;;;;;;1.20;1.07;;;23.20;57.50;;;;;;6173299;23;20378;-85
2021/09/02 12:09:22;;;;;;;1.10;0.97;;;23.20;57.50;;;;;;6198761;23;20382;-85
2021/09/02 12:11:55;;;;;;;0.90;0.80;;;23.20;57.50;;;;;;6198503;23;20375;-86
2021/09/02 12:14:31;;;;;;;1.10;0.90;;;23.20;57.50;;;;;;6199025;23;20389;-85
2021/09/02 12:17:24;;;;;;;1.40;1.23;;;23.20;57.50;;;;;;6173336;23;20405;-84
2021/09/02 12:19:55;;;;;;;1.13;1.03;;;23.20;57.50;;;;;;6197837;23;20386;-85
2021/09/02 12:22:37;;;;;;;1.77;1.20;;;23.20;57.60;;;;;;6173244;23;20745;-86
2021/09/02 12:25:17;;;;;;;1.00;0.90;;;23.20;57.60;;;;;;6173191;23;20376;-86
2021/09/02 12:27:59;;;;;;;1.27;1.00;;;23.20;57.60;;;;;;6199009;23;20394;-85
2021/09/02 12:30:54;;;;;;;;;;;;;;;;;;;;;
2021/09/02 12:33:23;;;;;;;1.40;1.10;;;23.20;57.60;;;;;;6187056;23;20414;-85
2021/09/02 12:35:52;;;;;;;1.80;1.20;;;23.10;57.70;;;;;;6172821;23;20383;-87
2021/09/02 12:38:40;;;;;;;1.50;1.13;;;23.10;57.60;;;;;;6173058;23;20386;-86
2021/09/02 12:41:15;;;;;;;1.20;1.10;;;23.20;57.60;;;;;;6198867;23;20442;-86
2021/09/02 12:44:00;;;;;;;1.60;1.10;;;23.10;57.60;;;;;;6172948;23;20371;-86
2021/09/02 12:46:26;;;;;;;1.20;1.00;;;23.20;57.60;;;;;;6172572;23;20382;-87
2021/09/02 12:49:11;;;;;;;1.30;1.13;;;23.10;58.10;;;;;;6170827;23;20517;-86
2021/09/02 12:51:56;;;;;;;1.30;1.07;;;23.20;57.60;;;;;;6173349;23;20419;-86
2021/09/02 12:54:22;;;;;;;1.07;0.97;;;23.20;57.70;;;;;;6171733;23;20707;-86
2021/09/02 12:57:01;;;;;;;1.30;1.10;;;23.10;57.60;;;;;;6198609;23;20395;-86
2021/09/02 12:59:29;;;;;;;1.23;1.13;;;23.20;57.70;;;;;;6173481;23;20171;-85
2021/09/02 13:02:10;;;;;;;1.40;1.10;;;23.10;57.70;;;;;;6172046;23;20426;-86
2021/09/02 13:04:40;;;;;;;1.40;1.30;;;23.10;57.70;;;;;;6172501;23;20407;-85
2021/09/02 13:07:25;;;;;;;1.50;1.20;;;23.10;57.70;;;;;;6172379;23;20411;-85
2021/09/02 13:09:58;;;;;;;1.37;1.10;;;23.20;57.80;;;;;;6198870;23;20394;-85
2021/09/02 13:12:27;;;;;;;1.10;1.00;;;23.10;57.70;;;;;;6172453;23;20382;-85
2021/09/02 13:15:05;;;;;;;1.40;1.17;;;23.10;57.70;;;;;;6173143;23;20393;-85
2021/09/02 13:17:45;;;;;;;1.53;1.20;;;23.10;57.70;;;;;;6145200;23;20375;-86
2021/09/02 13:20:13;;;;;;;1.30;1.13;;;23.10;57.70;;;;;;6172288;23;20383;-84
2021/09/02 13:23:06;;;;;;;1.13;1.00;;;23.10;57.70;;;;;;6172117;23;20423;-86
2021/09/02 13:25:32;;;;;;;1.40;1.10;;;23.10;57.70;;;;;;6172744;23;20383;-85
2021/09/02 13:28:04;;;;;;;1.43;1.33;;;23.10;57.70;;;;;;6199031;23;20390;-86
2021/09/02 13:30:33;;;;;;;1.33;1.13;;;23.10;57.70;;;;;;6172956;23;20363;-85
2021/09/02 13:32:59;;;;;;;1.30;1.20;;;23.10;57.70;;;;;;6173283;23;20386;-84
2021/09/02 13:35:27;;;;;;;1.30;1.10;;;23.10;57.80;;;;;;6173145;23;20387;-84
2021/09/02 13:37:55;;;;;;;1.77;1.27;;;23.10;57.80;;;;;;6173396;23;20155;-85
2021/09/02 13:40:30;;;;;;;1.50;1.23;;;23.10;57.70;;;;;;6171336;23;20379;-86
2021/09/02 13:42:56;;;;;;;1.30;1.10;;;23.10;57.80;;;;;;6172104;23;20453;-85
2021/09/02 13:45:22;;;;;;;1.30;1.10;;;23.10;57.70;;;;;;6198453;23;20439;-86
2021/09/02 13:47:50;;;;;;;1.37;1.23;;;23.10;57.70;;;;;;6198523;23;20144;-85
2021/09/02 13:50:16;;;;;;;1.40;1.20;;;23.10;58.30;;;;;;6172592;23;20147;-86
2021/09/02 13:52:49;;;;;;;1.60;1.37;;;23.10;57.80;;;;;;6172170;23;20414;-86
2021/09/02 13:55:18;;;;;;;1.80;1.30;;;23.10;57.80;;;;;;6172474;23;20171;-86
2021/09/02 13:57:46;;;;;;;1.30;1.20;;;23.10;57.80;;;;;;6224479;23;20740;-86
2021/09/02 14:00:19;;;;;;;1.37;1.20;;;23.10;57.70;;;;;;6202758;23;20389;-86
2021/09/02 14:06:15;;;;;;;1.30;1.20;;;23.10;57.70;;;;;;6108394;23;20405;-86
2021/09/02 14:09:06;;;;;;;1.60;1.30;;;23.10;58.50;;;;;;6108592;23;20888;-86
2021/09/02 14:11:37;;;;;;;2.20;1.30;;;23.10;58.00;;;;;;6095812;23;20472;-86
2021/09/02 14:14:05;;;;;;;1.30;1.20;;;23.00;57.90;;;;;;6109181;23;20833;-86
2021/09/02 14:16:31;;;;;;;1.77;1.57;;;23.10;58.00;;;;;;6109259;23;20409;-86
2021/09/02 14:18:57;;;;;;;1.50;1.20;;;23.00;57.90;;;;;;6109383;23;20373;-86
2021/09/02 14:21:28;;;;;;;1.70;1.47;;;23.10;58.00;;;;;;6109054;23;20217;-86
2021/09/02 14:23:57;;;;;;;1.30;1.20;;;23.10;57.90;;;;;;6109309;23;20174;-86